createdAt,value
2023-03-16T00:00:28.082Z,5.64
2023-03-16T00:01:27.632Z,5.64
2023-03-16T00:02:27.974Z,5.64
2023-03-16T00:03:27.700Z,5.67
2023-03-16T00:04:48.378Z,5.68
2023-03-16T00:05:27.738Z,5.68
2023-03-16T00:06:27.517Z,5.72
2023-03-16T00:07:27.734Z,5.72
2023-03-16T00:08:27.515Z,5.74
2023-03-16T00:09:27.742Z,5.75
2023-03-16T00:10:27.940Z,5.76
2023-03-16T00:11:27.757Z,5.76
2023-03-16T00:12:27.512Z,5.76
2023-03-16T00:13:27.773Z,5.78
2023-03-16T00:14:49.072Z,5.78
2023-03-16T00:15:27.341Z,5.79
2023-03-16T00:16:27.653Z,5.78
2023-03-16T00:17:27.358Z,5.78
2023-03-16T00:18:27.631Z,5.78
2023-03-16T00:19:27.344Z,5.76
2023-03-16T00:20:27.891Z,5.76
2023-03-16T00:21:27.363Z,5.78
2023-03-16T00:22:27.638Z,5.78
2023-03-16T00:23:27.608Z,5.78
2023-03-16T00:24:48.787Z,5.81
2023-03-16T00:25:27.591Z,5.79
2023-03-16T00:26:27.325Z,5.81
2023-03-16T00:27:27.577Z,5.79
2023-03-16T00:28:27.336Z,5.79
2023-03-16T00:29:27.590Z,5.79
2023-03-16T00:30:27.496Z,5.81
2023-03-16T00:31:27.124Z,5.81
2023-03-16T00:32:27.400Z,5.81
2023-03-16T00:33:27.111Z,5.81
2023-03-16T00:34:47.874Z,5.81
2023-03-16T00:35:27.181Z,5.82
2023-03-16T00:36:27.451Z,5.82
2023-03-16T00:37:27.263Z,5.82
2023-03-16T00:38:27.470Z,5.82
2023-03-16T00:39:27.211Z,5.83
2023-03-16T00:40:27.643Z,5.83
2023-03-16T00:41:27.237Z,5.83
2023-03-16T00:42:27.551Z,5.85
2023-03-16T00:43:27.264Z,5.85
2023-03-16T00:44:47.554Z,5.86
2023-03-16T00:45:27.265Z,5.89
2023-03-16T00:46:27.039Z,5.86
2023-03-16T00:47:27.289Z,5.86
2023-03-16T00:48:27.012Z,5.89
2023-03-16T00:49:27.262Z,5.90
2023-03-16T00:50:27.191Z,5.90
2023-03-16T00:51:27.269Z,5.91
2023-03-16T00:52:27.192Z,5.93
2023-03-16T00:53:28.362Z,5.93
2023-03-16T00:54:47.223Z,5.96
2023-03-16T00:55:28.729Z,5.94
2023-03-16T00:56:28.513Z,5.96
2023-03-16T00:57:27.905Z,5.96
2023-03-16T00:58:27.913Z,5.96
2023-03-16T00:59:28.573Z,5.96
2023-03-16T01:00:28.911Z,5.97
2023-03-16T01:01:28.669Z,5.97
2023-03-16T01:02:28.616Z,5.96
2023-03-16T01:03:28.435Z,5.96
2023-03-16T01:04:47.194Z,5.96
2023-03-16T01:05:27.908Z,5.97
2023-03-16T01:06:28.780Z,5.97
2023-03-16T01:07:28.571Z,5.96
2023-03-16T01:08:28.381Z,5.99
2023-03-16T01:09:28.679Z,5.97
2023-03-16T01:10:27.548Z,5.97
2023-03-16T01:11:28.392Z,5.97
2023-03-16T01:12:27.412Z,5.96
2023-03-16T01:13:28.474Z,5.94
2023-03-16T01:14:46.814Z,5.94
2023-03-16T01:15:28.521Z,5.94
2023-03-16T01:16:28.342Z,5.94
2023-03-16T01:17:28.558Z,5.93
2023-03-16T01:18:27.958Z,5.94
2023-03-16T01:19:28.231Z,5.94
2023-03-16T01:20:27.595Z,5.94
2023-03-16T01:21:28.369Z,5.94
2023-03-16T01:22:28.160Z,5.96
2023-03-16T01:23:28.461Z,5.97
2023-03-16T01:24:46.808Z,5.99
2023-03-16T01:25:28.016Z,6.00
2023-03-16T01:26:27.003Z,5.99
2023-03-16T01:27:28.181Z,6.01
2023-03-16T01:28:28.451Z,6.01
2023-03-16T01:29:28.266Z,6.01
2023-03-16T01:30:28.348Z,6.01
2023-03-16T01:31:27.402Z,6.03
2023-03-16T01:32:28.139Z,6.03
2023-03-16T01:33:28.443Z,6.04
2023-03-16T01:34:46.761Z,6.04
2023-03-16T01:35:28.032Z,6.03
2023-03-16T01:36:28.314Z,6.03
2023-03-16T01:37:27.404Z,6.03
2023-03-16T01:38:26.958Z,6.03
2023-03-16T01:39:28.165Z,6.03
2023-03-16T01:40:27.391Z,6.01
2023-03-16T01:41:28.211Z,6.01
2023-03-16T01:42:26.781Z,6.01
2023-03-16T01:43:27.398Z,6.03
2023-03-16T01:44:46.845Z,6.01
2023-03-16T01:45:28.076Z,6.01
2023-03-16T01:46:27.890Z,6.01
2023-03-16T01:47:28.146Z,6.04
2023-03-16T01:48:27.932Z,6.06
2023-03-16T01:49:27.400Z,6.04
2023-03-16T01:50:26.814Z,6.04
2023-03-16T01:51:26.780Z,6.03
2023-03-16T01:52:26.521Z,6.04
2023-03-16T01:53:26.887Z,6.03
2023-03-16T01:54:47.252Z,6.04
2023-03-16T01:55:26.374Z,6.06
2023-03-16T01:56:26.618Z,6.04
2023-03-16T01:57:26.412Z,6.06
2023-03-16T01:58:26.653Z,6.08
2023-03-16T01:59:26.415Z,6.08
2023-03-16T02:00:27.005Z,6.08
2023-03-16T02:01:26.448Z,6.08
2023-03-16T02:02:26.641Z,6.08
2023-03-16T02:03:26.405Z,6.06
2023-03-16T02:04:47.895Z,6.08
2023-03-16T02:05:28.555Z,6.06
2023-03-16T02:06:26.268Z,6.08
2023-03-16T02:07:26.535Z,6.09
2023-03-16T02:08:27.628Z,6.08
2023-03-16T02:09:27.038Z,6.06
2023-03-16T02:10:26.737Z,6.08
2023-03-16T02:11:26.162Z,6.09
2023-03-16T02:12:26.402Z,6.09
2023-03-16T02:13:26.163Z,6.08
2023-03-16T02:14:47.900Z,6.11
2023-03-16T02:15:26.223Z,6.11
2023-03-16T02:16:26.460Z,6.12
2023-03-16T02:17:26.210Z,6.12
2023-03-16T02:18:26.440Z,6.12
2023-03-16T02:19:26.209Z,6.14
2023-03-16T02:20:26.761Z,6.12
2023-03-16T02:21:26.201Z,6.11
2023-03-16T02:22:26.446Z,6.11
2023-03-16T02:23:26.196Z,6.12
2023-03-16T02:24:46.942Z,6.12
2023-03-16T02:25:26.269Z,6.12
2023-03-16T02:26:26.031Z,6.11
2023-03-16T02:27:26.343Z,6.11
2023-03-16T02:28:26.066Z,6.08
2023-03-16T02:29:26.323Z,6.09
2023-03-16T02:30:26.464Z,6.09
2023-03-16T02:31:26.359Z,6.09
2023-03-16T02:32:26.111Z,6.11
2023-03-16T02:33:26.341Z,6.11
2023-03-16T02:34:47.650Z,6.12
2023-03-16T02:35:26.032Z,6.09
2023-03-16T02:36:26.192Z,6.11
2023-03-16T02:37:25.957Z,6.11
2023-03-16T02:38:26.184Z,6.14
2023-03-16T02:39:25.951Z,6.14
2023-03-16T02:40:26.545Z,6.11
2023-03-16T02:41:25.957Z,6.11
2023-03-16T02:42:26.203Z,6.14
2023-03-16T02:43:25.962Z,6.12
2023-03-16T02:44:47.694Z,6.12
2023-03-16T02:45:26.005Z,6.11
2023-03-16T02:46:26.349Z,6.11
2023-03-16T02:47:26.025Z,6.11
2023-03-16T02:48:25.767Z,6.08
2023-03-16T02:49:26.023Z,6.09
2023-03-16T02:50:26.103Z,6.08
2023-03-16T02:51:26.034Z,6.04
2023-03-16T02:52:25.782Z,6.08
2023-03-16T02:53:26.044Z,6.04
2023-03-16T02:54:47.287Z,6.04
2023-03-16T02:55:26.089Z,6.04
2023-03-16T02:56:25.826Z,6.04
2023-03-16T02:57:26.097Z,6.03
2023-03-16T02:58:25.842Z,6.04
2023-03-16T02:59:26.076Z,6.01
2023-03-16T03:00:26.129Z,6.03
2023-03-16T03:01:26.124Z,6.03
2023-03-16T03:02:25.867Z,6.03
2023-03-16T03:03:26.140Z,6.01
2023-03-16T03:04:47.336Z,6.03
2023-03-16T03:05:25.650Z,6.01
2023-03-16T03:06:25.899Z,6.04
2023-03-16T03:07:25.653Z,6.03
2023-03-16T03:08:25.898Z,6.00
2023-03-16T03:09:25.667Z,6.00
2023-03-16T03:10:26.199Z,5.99
2023-03-16T03:11:25.658Z,6.00
2023-03-16T03:12:25.922Z,5.97
2023-03-16T03:13:25.654Z,5.96
2023-03-16T03:14:46.465Z,5.93
2023-03-16T03:15:25.758Z,5.93
2023-03-16T03:16:25.555Z,5.91
2023-03-16T03:17:25.775Z,5.91
2023-03-16T03:18:25.543Z,5.90
2023-03-16T03:19:25.836Z,5.90
2023-03-16T03:20:25.646Z,5.90
2023-03-16T03:21:25.829Z,5.90
2023-03-16T03:22:25.632Z,5.89
2023-03-16T03:23:25.898Z,5.89
2023-03-16T03:24:45.707Z,5.86
2023-03-16T03:25:25.488Z,5.86
2023-03-16T03:26:25.731Z,5.86
2023-03-16T03:27:25.554Z,5.89
2023-03-16T03:28:25.805Z,5.86
2023-03-16T03:29:25.548Z,5.86
2023-03-16T03:30:26.272Z,5.86
2023-03-16T03:31:25.653Z,5.85
2023-03-16T03:32:25.873Z,5.85
2023-03-16T03:33:25.670Z,5.89
2023-03-16T03:34:45.498Z,5.86
2023-03-16T03:35:25.826Z,5.89
2023-03-16T03:36:25.561Z,5.89
2023-03-16T03:37:25.343Z,5.86
2023-03-16T03:38:25.600Z,5.90
2023-03-16T03:39:25.395Z,5.90
2023-03-16T03:40:26.055Z,5.89
2023-03-16T03:41:25.440Z,5.89
2023-03-16T03:42:25.782Z,5.90
2023-03-16T03:43:25.514Z,5.90
2023-03-16T03:44:45.977Z,5.91
2023-03-16T03:45:25.237Z,5.91
2023-03-16T03:46:25.640Z,5.91
2023-03-16T03:47:25.338Z,5.93
2023-03-16T03:48:25.670Z,5.93
2023-03-16T03:49:25.455Z,5.91
2023-03-16T03:50:25.376Z,5.91
2023-03-16T03:51:25.493Z,5.91
2023-03-16T03:52:25.273Z,5.93
2023-03-16T03:53:25.589Z,5.93
2023-03-16T03:54:46.372Z,5.93
2023-03-16T03:55:25.231Z,5.93
2023-03-16T03:56:25.480Z,5.93
2023-03-16T03:57:25.237Z,5.96
2023-03-16T03:58:25.501Z,5.94
2023-03-16T03:59:25.299Z,5.96
2023-03-16T04:00:25.822Z,5.96
2023-03-16T04:01:25.309Z,5.96
2023-03-16T04:02:25.296Z,5.97
2023-03-16T04:03:25.372Z,5.97
2023-03-16T04:04:46.560Z,5.99
2023-03-16T04:05:25.370Z,5.97
2023-03-16T04:06:25.111Z,5.97
2023-03-16T04:07:25.366Z,5.99
2023-03-16T04:08:25.104Z,5.99
2023-03-16T04:09:25.358Z,5.99
2023-03-16T04:10:25.214Z,5.99
2023-03-16T04:11:25.385Z,5.99
2023-03-16T04:12:25.129Z,5.99
2023-03-16T04:13:25.392Z,5.99
2023-03-16T04:14:46.014Z,6.01
2023-03-16T04:15:24.934Z,6.01
2023-03-16T04:16:25.170Z,6.03
2023-03-16T04:17:24.936Z,6.01
2023-03-16T04:18:25.161Z,6.01
2023-03-16T04:19:24.936Z,6.01
2023-03-16T04:20:25.568Z,6.01
2023-03-16T04:21:24.970Z,6.01
2023-03-16T04:22:25.226Z,6.04
2023-03-16T04:23:25.972Z,6.06
2023-03-16T04:24:45.278Z,6.08
2023-03-16T04:25:24.971Z,6.06
2023-03-16T04:26:25.226Z,6.06
2023-03-16T04:27:24.972Z,6.06
2023-03-16T04:28:25.232Z,6.06
2023-03-16T04:29:24.990Z,6.06
2023-03-16T04:30:25.265Z,6.06
2023-03-16T04:31:25.030Z,6.09
2023-03-16T04:32:25.253Z,6.08
2023-03-16T04:33:25.004Z,6.09
2023-03-16T04:34:44.756Z,6.11
2023-03-16T04:35:25.026Z,6.11
2023-03-16T04:36:24.770Z,6.12
2023-03-16T04:37:25.043Z,6.12
2023-03-16T04:38:24.788Z,6.12
2023-03-16T04:39:25.038Z,6.14
2023-03-16T04:40:24.777Z,6.15
2023-03-16T04:41:25.039Z,6.14
2023-03-16T04:42:26.256Z,6.15
2023-03-16T04:43:25.510Z,6.15
2023-03-16T04:44:45.589Z,6.15
2023-03-16T04:45:24.745Z,6.15
2023-03-16T04:46:25.031Z,6.15
2023-03-16T04:47:24.778Z,6.15
2023-03-16T04:48:25.013Z,6.15
2023-03-16T04:49:24.791Z,6.17
2023-03-16T04:50:25.052Z,6.18
2023-03-16T04:51:24.788Z,6.18
2023-03-16T04:52:24.550Z,6.18
2023-03-16T04:53:24.799Z,6.18
2023-03-16T04:54:45.522Z,6.18
2023-03-16T04:55:24.985Z,6.15
2023-03-16T04:56:24.725Z,6.17
2023-03-16T04:57:24.982Z,6.18
2023-03-16T04:58:24.708Z,6.17
2023-03-16T04:59:24.471Z,6.17
2023-03-16T05:00:24.733Z,6.18
2023-03-16T05:01:24.525Z,6.18
2023-03-16T05:02:24.763Z,6.17
2023-03-16T05:03:24.520Z,6.15
2023-03-16T05:04:46.268Z,6.17
2023-03-16T05:05:24.676Z,6.14
2023-03-16T05:06:24.887Z,6.15
2023-03-16T05:07:24.652Z,6.14
2023-03-16T05:08:24.392Z,6.14
2023-03-16T05:09:24.655Z,6.14
2023-03-16T05:10:24.418Z,6.14
2023-03-16T05:11:24.649Z,6.11
2023-03-16T05:12:24.409Z,6.11
2023-03-16T05:13:24.671Z,6.11
2023-03-16T05:14:46.026Z,6.12
2023-03-16T05:15:24.302Z,6.14
2023-03-16T05:16:24.583Z,6.14
2023-03-16T05:17:24.314Z,6.14
2023-03-16T05:18:24.575Z,6.12
2023-03-16T05:19:24.344Z,6.15
2023-03-16T05:20:24.594Z,6.12
2023-03-16T05:21:24.367Z,6.11
2023-03-16T05:22:24.632Z,6.15
2023-03-16T05:23:24.376Z,6.14
2023-03-16T05:24:45.034Z,6.14
2023-03-16T05:25:24.473Z,6.14
2023-03-16T05:26:24.248Z,6.14
2023-03-16T05:27:24.495Z,6.14
2023-03-16T05:28:24.274Z,6.14
2023-03-16T05:29:24.536Z,6.12
2023-03-16T05:30:24.301Z,6.14
2023-03-16T05:31:24.626Z,6.15
2023-03-16T05:32:24.360Z,6.15
2023-03-16T05:33:24.570Z,6.15
2023-03-16T05:34:45.822Z,6.17
2023-03-16T05:35:24.382Z,6.17
2023-03-16T05:36:24.396Z,6.17
2023-03-16T05:37:24.143Z,6.17
2023-03-16T05:38:24.390Z,6.17
2023-03-16T05:39:24.137Z,6.18
2023-03-16T05:40:24.428Z,6.15
2023-03-16T05:41:24.177Z,6.19
2023-03-16T05:42:24.440Z,6.21
2023-03-16T05:43:24.173Z,6.22
2023-03-16T05:44:44.488Z,6.22
2023-03-16T05:45:24.303Z,6.25
2023-03-16T05:46:24.171Z,6.22
2023-03-16T05:47:24.264Z,6.25
2023-03-16T05:48:24.047Z,6.27
2023-03-16T05:49:24.288Z,6.27
2023-03-16T05:50:24.044Z,6.28
2023-03-16T05:51:24.288Z,6.28
2023-03-16T05:52:24.049Z,6.28
2023-03-16T05:53:24.297Z,6.28
2023-03-16T05:54:44.084Z,6.28
2023-03-16T05:55:24.322Z,6.30
2023-03-16T05:56:24.074Z,6.30
2023-03-16T05:57:24.316Z,6.30
2023-03-16T05:58:24.092Z,6.30
2023-03-16T05:59:24.330Z,6.31
2023-03-16T06:00:24.087Z,6.33
2023-03-16T06:01:24.350Z,6.33
2023-03-16T06:02:24.126Z,6.34
2023-03-16T06:03:23.873Z,6.36
2023-03-16T06:04:44.138Z,6.37
2023-03-16T06:05:23.851Z,6.37
2023-03-16T06:06:24.116Z,6.40
2023-03-16T06:07:23.865Z,6.40
2023-03-16T06:08:24.140Z,6.40
2023-03-16T06:09:23.879Z,6.43
2023-03-16T06:10:24.166Z,6.43
2023-03-16T06:11:23.880Z,6.44
2023-03-16T06:12:24.146Z,6.46
2023-03-16T06:13:23.904Z,6.51
2023-03-16T06:14:44.217Z,6.54
2023-03-16T06:15:25.425Z,6.54
2023-03-16T06:16:24.669Z,6.51
2023-03-16T06:17:25.563Z,6.55
2023-03-16T06:18:25.068Z,6.52
2023-03-16T06:19:25.288Z,6.54
2023-03-16T06:20:25.125Z,6.54
2023-03-16T06:21:25.452Z,6.55
2023-03-16T06:22:24.784Z,6.56
2023-03-16T06:23:25.544Z,6.58
2023-03-16T06:24:43.893Z,6.59
2023-03-16T06:25:25.086Z,6.58
2023-03-16T06:26:24.902Z,6.61
2023-03-16T06:27:24.565Z,6.62
2023-03-16T06:28:24.595Z,6.64
2023-03-16T06:29:25.421Z,6.64
2023-03-16T06:30:25.247Z,6.66
2023-03-16T06:31:25.012Z,6.67
2023-03-16T06:32:25.310Z,6.70
2023-03-16T06:33:25.098Z,6.69
2023-03-16T06:34:43.974Z,6.70
2023-03-16T06:35:24.696Z,6.69
2023-03-16T06:36:24.507Z,6.70
2023-03-16T06:37:24.469Z,6.71
2023-03-16T06:38:24.500Z,6.71
2023-03-16T06:39:24.490Z,6.74
2023-03-16T06:40:25.121Z,6.73
2023-03-16T06:41:25.391Z,6.74
2023-03-16T06:42:25.211Z,6.76
2023-03-16T06:43:25.096Z,6.77
2023-03-16T06:44:43.980Z,6.77
2023-03-16T06:45:24.082Z,6.76
2023-03-16T06:46:25.059Z,6.77
2023-03-16T06:47:25.323Z,6.77
2023-03-16T06:48:25.122Z,6.77
2023-03-16T06:49:24.959Z,6.79
2023-03-16T06:50:24.886Z,6.77
2023-03-16T06:51:24.091Z,6.77
2023-03-16T06:52:24.089Z,6.79
2023-03-16T06:53:24.869Z,6.79
2023-03-16T06:54:43.595Z,6.81
2023-03-16T06:55:23.330Z,6.84
2023-03-16T06:56:23.603Z,6.81
2023-03-16T06:57:23.321Z,6.85
2023-03-16T06:58:23.729Z,6.85
2023-03-16T06:59:23.348Z,6.87
2023-03-16T07:00:23.607Z,6.87
2023-03-16T07:01:23.438Z,6.87
2023-03-16T07:02:23.650Z,6.88
2023-03-16T07:03:23.371Z,6.88
2023-03-16T07:04:45.141Z,6.91
2023-03-16T07:05:23.371Z,6.91
2023-03-16T07:06:22.738Z,6.91
2023-03-16T07:07:22.713Z,6.89
2023-03-16T07:08:22.714Z,6.91
2023-03-16T07:09:22.700Z,6.92
2023-03-16T07:10:22.741Z,6.94
2023-03-16T07:11:22.663Z,6.95
2023-03-16T07:12:22.666Z,6.97
2023-03-16T07:13:22.662Z,6.95
2023-03-16T07:14:44.383Z,6.98
2023-03-16T07:15:22.604Z,7.02
2023-03-16T07:16:22.657Z,7.03
2023-03-16T07:17:22.601Z,7.05
2023-03-16T07:18:22.622Z,7.05
2023-03-16T07:19:22.598Z,7.07
2023-03-16T07:20:23.748Z,7.06
2023-03-16T07:21:23.371Z,7.09
2023-03-16T07:22:23.131Z,7.10
2023-03-16T07:23:23.375Z,7.10
2023-03-16T07:24:44.643Z,7.13
2023-03-16T07:25:23.442Z,7.13
2023-03-16T07:26:23.173Z,7.13
2023-03-16T07:27:23.450Z,7.15
2023-03-16T07:28:23.219Z,7.16
2023-03-16T07:29:23.450Z,7.17
2023-03-16T07:30:23.185Z,7.17
2023-03-16T07:31:23.479Z,7.21
2023-03-16T07:32:23.324Z,7.24
2023-03-16T07:33:22.980Z,7.25
2023-03-16T07:34:43.946Z,7.27
2023-03-16T07:35:23.256Z,7.28
2023-03-16T07:36:23.011Z,7.27
2023-03-16T07:37:25.561Z,7.30
2023-03-16T07:38:23.009Z,7.30
2023-03-16T07:39:23.259Z,7.32
2023-03-16T07:40:23.017Z,7.34
2023-03-16T07:41:23.284Z,7.35
2023-03-16T07:42:23.051Z,7.37
2023-03-16T07:43:23.290Z,7.39
2023-03-16T07:44:43.642Z,7.39
2023-03-16T07:45:22.931Z,7.42
2023-03-16T07:46:23.276Z,7.43
2023-03-16T07:47:26.249Z,7.43
2023-03-16T07:48:23.180Z,7.43
2023-03-16T07:49:22.904Z,7.46
2023-03-16T07:50:23.177Z,7.46
2023-03-16T07:51:22.895Z,7.48
2023-03-16T07:52:23.165Z,7.52
2023-03-16T07:53:23.901Z,7.55
2023-03-16T07:54:44.671Z,7.58
2023-03-16T07:55:22.999Z,7.60
2023-03-16T07:56:22.742Z,7.67
2023-03-16T07:57:22.231Z,7.74
2023-03-16T07:58:22.198Z,7.82
2023-03-16T07:59:22.196Z,7.89
2023-03-16T08:00:22.189Z,7.97
2023-03-16T08:01:23.000Z,8.00
2023-03-16T08:02:22.752Z,8.08
2023-03-16T08:03:23.100Z,8.18
2023-03-16T08:04:44.213Z,8.22
2023-03-16T08:05:22.981Z,8.23
2023-03-16T08:06:22.756Z,8.22
2023-03-16T08:07:23.008Z,8.22
2023-03-16T08:08:22.760Z,8.20
2023-03-16T08:09:22.999Z,8.16
2023-03-16T08:10:22.764Z,8.12
2023-03-16T08:11:22.984Z,8.08
2023-03-16T08:12:25.313Z,8.07
2023-03-16T08:13:23.007Z,8.08
2023-03-16T08:14:44.327Z,8.08
2023-03-16T08:15:22.638Z,8.10
2023-03-16T08:16:22.983Z,8.12
2023-03-16T08:17:22.640Z,8.11
2023-03-16T08:18:22.896Z,8.15
2023-03-16T08:19:22.654Z,8.16
2023-03-16T08:20:23.016Z,8.20
2023-03-16T08:21:22.659Z,8.26
2023-03-16T08:22:22.965Z,8.30
2023-03-16T08:23:22.715Z,8.34
2023-03-16T08:24:43.655Z,8.38
2023-03-16T08:25:22.804Z,8.41
2023-03-16T08:26:22.589Z,8.43
2023-03-16T08:27:22.827Z,8.41
2023-03-16T08:28:22.624Z,8.43
2023-03-16T08:29:22.847Z,8.44
2023-03-16T08:30:22.602Z,8.45
2023-03-16T08:31:22.407Z,8.52
2023-03-16T08:32:23.677Z,8.55
2023-03-16T08:33:23.387Z,8.58
2023-03-16T08:34:44.159Z,8.66
2023-03-16T08:35:22.431Z,8.71
2023-03-16T08:36:22.711Z,8.76
2023-03-16T08:37:22.434Z,8.77
2023-03-16T08:38:22.720Z,8.77
2023-03-16T08:39:22.435Z,8.77
2023-03-16T08:40:22.756Z,8.83
2023-03-16T08:41:22.479Z,8.86
2023-03-16T08:42:22.747Z,8.91
2023-03-16T08:43:22.490Z,8.96
2023-03-16T08:44:44.280Z,9.01
2023-03-16T08:45:22.548Z,8.96
2023-03-16T08:46:22.356Z,8.94
2023-03-16T08:47:22.546Z,8.91
2023-03-16T08:48:22.285Z,8.87
2023-03-16T08:49:22.528Z,8.86
2023-03-16T08:50:22.309Z,8.84
2023-03-16T08:51:22.566Z,8.83
2023-03-16T08:52:23.035Z,8.81
2023-03-16T08:53:21.646Z,8.81
2023-03-16T08:54:55.994Z,8.84
2023-03-16T08:55:22.603Z,8.84
2023-03-16T08:56:22.402Z,8.87
2023-03-16T08:57:22.128Z,8.87
2023-03-16T08:58:22.398Z,8.89
2023-03-16T08:59:29.706Z,8.95
2023-03-16T09:00:23.435Z,9.01
2023-03-16T09:01:22.218Z,9.10
2023-03-16T09:02:22.450Z,9.17
2023-03-16T09:03:22.130Z,9.23
2023-03-16T09:04:43.935Z,9.36
2023-03-16T09:05:22.177Z,9.33
2023-03-16T09:06:22.485Z,9.40
2023-03-16T09:07:22.179Z,9.43
2023-03-16T09:08:22.452Z,9.50
2023-03-16T09:09:22.184Z,9.54
2023-03-16T09:10:22.469Z,9.58
2023-03-16T09:11:22.233Z,9.61
2023-03-16T09:12:21.956Z,9.75
2023-03-16T09:13:22.185Z,9.93
2023-03-16T09:14:42.484Z,10.20
2023-03-16T09:15:22.229Z,10.41
2023-03-16T09:16:22.033Z,10.68
2023-03-16T09:17:22.244Z,11.14
2023-03-16T09:18:21.982Z,11.73
2023-03-16T09:19:24.197Z,11.85
2023-03-16T09:20:34.845Z,11.75
2023-03-16T09:21:23.273Z,11.64
2023-03-16T09:22:22.030Z,11.73
2023-03-16T09:23:22.429Z,12.01
2023-03-16T09:24:42.075Z,12.49
2023-03-16T09:25:22.301Z,12.86
2023-03-16T09:26:22.035Z,13.11
2023-03-16T09:27:22.385Z,12.89
2023-03-16T09:28:22.296Z,12.85
2023-03-16T09:29:21.820Z,12.70
2023-03-16T09:30:22.078Z,12.53
2023-03-16T09:31:21.874Z,12.41
2023-03-16T09:32:21.272Z,12.37
2023-03-16T09:33:22.048Z,12.31
2023-03-16T09:34:42.786Z,11.94
2023-03-16T09:35:22.043Z,11.75
2023-03-16T09:36:21.804Z,11.54
2023-03-16T09:37:22.044Z,11.49
2023-03-16T09:38:21.789Z,11.52
2023-03-16T09:39:22.054Z,11.61
2023-03-16T09:40:21.788Z,12.04
2023-03-16T09:41:22.541Z,13.23
2023-03-16T09:42:21.804Z,14.27
2023-03-16T09:43:22.077Z,14.80
2023-03-16T09:44:41.852Z,14.64
2023-03-16T09:45:22.065Z,14.42
2023-03-16T09:46:21.900Z,14.37
2023-03-16T09:47:22.074Z,14.07
2023-03-16T09:48:21.060Z,13.77
2023-03-16T09:49:21.111Z,13.96
2023-03-16T09:50:21.840Z,14.51
2023-03-16T09:51:21.637Z,14.68
2023-03-16T09:52:21.847Z,14.80
2023-03-16T09:54:13.112Z,15.83
2023-03-16T09:54:41.066Z,17.41
2023-03-16T09:55:21.815Z,16.97
2023-03-16T09:56:49.681Z,17.36
2023-03-16T09:57:21.893Z,17.22
2023-03-16T09:58:21.629Z,17.16
2023-03-16T09:59:21.886Z,16.52
2023-03-16T10:00:29.887Z,16.49
2023-03-16T10:01:24.441Z,17.03
2023-03-16T10:02:21.627Z,16.91
2023-03-16T10:03:21.930Z,16.49
2023-03-16T10:04:41.685Z,16.11
2023-03-16T10:05:21.898Z,16.52
2023-03-16T10:06:21.649Z,16.11
2023-03-16T10:07:21.411Z,15.76
2023-03-16T10:10:12.148Z,16.70
2023-03-16T10:10:16.948Z,18.48
2023-03-16T10:11:17.697Z,18.44
2023-03-16T10:12:17.449Z,17.96
2023-03-16T10:13:20.690Z,18.45
2023-03-16T10:14:17.553Z,18.00
2023-03-16T10:15:39.227Z,17.07
2023-03-16T10:16:17.512Z,16.50
2023-03-16T10:17:17.777Z,16.05
2023-03-16T10:18:17.534Z,15.97
2023-03-16T10:19:17.764Z,16.00
2023-03-16T10:20:17.574Z,16.11
2023-03-16T10:21:17.771Z,16.12
2023-03-16T10:22:17.534Z,16.28
2023-03-16T10:23:17.780Z,16.49
2023-03-16T10:24:17.551Z,16.60
2023-03-16T10:25:37.819Z,16.76
2023-03-16T10:26:17.575Z,16.49
2023-03-16T10:27:17.355Z,16.11
2023-03-16T10:28:17.634Z,16.05
2023-03-16T10:29:17.401Z,16.33
2023-03-16T10:30:17.675Z,17.01
2023-03-16T10:31:17.423Z,17.56
2023-03-16T10:32:17.677Z,17.52
2023-03-16T10:33:17.466Z,17.54
2023-03-16T10:34:17.712Z,17.66
2023-03-16T10:35:37.450Z,17.38
2023-03-16T10:36:17.232Z,17.40
2023-03-16T10:37:17.443Z,17.12
2023-03-16T10:38:18.099Z,16.70
2023-03-16T10:39:17.486Z,16.73
2023-03-16T10:40:17.251Z,16.93
2023-03-16T10:41:17.496Z,16.89
2023-03-16T10:42:17.256Z,16.76
2023-03-16T10:43:17.527Z,16.24
2023-03-16T10:44:17.268Z,16.07
2023-03-16T10:45:38.292Z,16.46
2023-03-16T10:46:17.536Z,16.42
2023-03-16T10:47:17.564Z,16.46
2023-03-16T10:48:17.327Z,16.39
2023-03-16T10:49:17.102Z,16.42
2023-03-16T10:50:17.361Z,16.56
2023-03-16T10:51:17.102Z,16.52
2023-03-16T10:52:17.361Z,16.67
2023-03-16T10:53:17.107Z,16.91
2023-03-16T11:01:43.907Z,17.90
2023-03-16T11:02:09.989Z,21.16
2023-03-16T11:04:08.047Z,20.88
2023-03-16T11:04:13.839Z,21.22
2023-03-16T11:05:13.613Z,20.61
2023-03-16T11:06:13.352Z,19.83
2023-03-16T11:07:13.641Z,19.78
2023-03-16T11:08:13.394Z,19.68
2023-03-16T11:09:13.670Z,19.65
2023-03-16T11:10:13.416Z,19.44
2023-03-16T11:11:13.669Z,19.83
2023-03-16T11:12:33.433Z,19.74
2023-03-16T11:21:26.196Z,20.29
2023-03-16T11:21:30.968Z,21.65
2023-03-16T11:22:31.722Z,20.87
2023-03-16T11:24:40.498Z,20.57
2023-03-16T11:25:04.814Z,20.70
2023-03-16T11:25:46.116Z,20.69
2023-03-16T11:26:51.351Z,20.77
2023-03-16T11:31:32.143Z,21.12
2023-03-16T11:31:36.959Z,22.15
2023-03-16T11:32:58.296Z,21.72
2023-03-16T11:33:37.547Z,21.40
2023-03-16T11:34:37.828Z,21.19
2023-03-16T11:35:41.990Z,20.80
2023-03-16T11:36:38.815Z,20.58
2023-03-16T11:37:37.606Z,20.39
2023-03-16T11:38:37.965Z,19.81
2023-03-16T11:39:37.614Z,19.59
2023-03-16T11:40:37.878Z,19.48
2023-03-16T11:41:37.696Z,19.62
2023-03-16T11:42:57.452Z,19.78
2023-03-16T11:43:37.665Z,19.81
2023-03-16T11:44:38.245Z,19.66
2023-03-16T11:45:37.730Z,19.59
2023-03-16T11:46:37.596Z,19.54
2023-03-16T11:47:37.755Z,19.63
2023-03-16T11:48:37.512Z,19.86
2023-03-16T11:49:37.257Z,19.81
2023-03-16T11:50:37.544Z,19.48
2023-03-16T11:51:37.278Z,19.40
2023-03-16T11:52:57.558Z,19.10
2023-03-16T11:53:37.293Z,18.76
2023-03-16T11:54:37.579Z,18.37
2023-03-16T11:55:37.330Z,18.08
2023-03-16T11:56:37.598Z,17.87
2023-03-16T11:57:37.344Z,17.62
2023-03-16T11:58:37.636Z,17.54
2023-03-16T11:59:39.614Z,17.58
2023-03-16T12:00:37.621Z,17.56
2023-03-16T12:01:41.080Z,17.55
2023-03-16T12:02:57.855Z,17.75
2023-03-16T12:03:38.949Z,17.78
2023-03-16T12:04:38.672Z,17.75
2023-03-16T12:05:38.948Z,17.81
2023-03-16T12:06:37.293Z,17.62
2023-03-16T12:07:39.027Z,17.58
2023-03-16T12:08:37.773Z,17.62
2023-03-16T12:09:37.261Z,17.55
2023-03-16T12:10:37.525Z,17.55
2023-03-16T12:11:40.983Z,17.55
2023-03-16T12:12:58.090Z,17.95
2023-03-16T12:13:37.441Z,18.14
2023-03-16T12:14:36.589Z,18.26
2023-03-16T12:15:36.547Z,18.45
2023-03-16T12:16:48.704Z,18.73
2023-03-16T12:17:39.146Z,18.94
2023-03-16T12:18:37.066Z,19.43
2023-03-16T12:19:37.759Z,19.63
2023-03-16T12:20:38.590Z,19.39
2023-03-16T12:21:36.557Z,19.11
2023-03-16T12:22:57.972Z,19.10
2023-03-16T12:23:38.779Z,18.99
2023-03-16T12:24:38.518Z,19.11
2023-03-16T12:25:37.765Z,19.07
2023-03-16T12:26:38.768Z,18.69
2023-03-16T12:27:37.736Z,18.69
2023-03-16T12:28:38.799Z,18.58
2023-03-16T12:29:38.145Z,18.44
2023-03-16T12:30:37.766Z,18.50
2023-03-16T12:31:36.820Z,18.91
2023-03-16T12:32:56.360Z,19.39
2023-03-16T12:33:38.594Z,19.54
2023-03-16T12:34:38.421Z,19.63
2023-03-16T12:35:38.807Z,20.20
2023-03-16T12:36:38.595Z,20.41
2023-03-16T12:37:37.925Z,20.89
2023-03-16T12:38:45.282Z,21.34
2023-03-16T12:42:22.611Z,21.35
2023-03-16T12:42:29.028Z,20.82
2023-03-16T12:43:29.869Z,20.58
2023-03-16T12:44:49.578Z,20.20
2023-03-16T12:45:28.228Z,19.99
2023-03-16T12:46:28.138Z,19.92
2023-03-16T12:47:27.898Z,19.61
2023-03-16T12:48:28.150Z,19.25
2023-03-16T12:49:27.927Z,18.80
2023-03-16T12:50:28.173Z,18.54
2023-03-16T12:51:27.917Z,18.37
2023-03-16T12:52:28.165Z,18.11
2023-03-16T12:53:27.922Z,17.99
2023-03-16T12:54:49.286Z,17.92
2023-03-16T12:55:28.408Z,17.77
2023-03-16T12:56:27.839Z,17.55
2023-03-16T12:57:29.098Z,17.48
2023-03-16T12:58:28.832Z,17.49
2023-03-16T12:59:28.158Z,17.49
2023-03-16T13:00:28.096Z,17.43
2023-03-16T13:01:28.152Z,17.21
2023-03-16T13:02:27.910Z,16.93
2023-03-16T13:03:31.152Z,16.79
2023-03-16T13:04:51.756Z,16.58
2023-03-16T13:05:28.173Z,16.53
2023-03-16T13:06:28.034Z,16.41
2023-03-16T13:07:27.813Z,16.35
2023-03-16T13:08:28.045Z,16.39
2023-03-16T13:09:27.801Z,16.46
2023-03-16T13:10:28.294Z,16.38
2023-03-16T13:11:27.840Z,16.35
2023-03-16T13:12:28.089Z,16.39
2023-03-16T13:13:27.848Z,16.30
2023-03-16T13:14:49.678Z,16.31
2023-03-16T13:15:27.990Z,16.30
2023-03-16T13:16:27.771Z,16.17
2023-03-16T13:17:28.052Z,16.05
2023-03-16T13:18:27.749Z,16.00
2023-03-16T13:19:28.032Z,15.96
2023-03-16T13:20:31.288Z,15.94
2023-03-16T13:21:27.525Z,15.90
2023-03-16T13:22:27.795Z,15.83
2023-03-16T13:23:27.550Z,15.67
2023-03-16T13:24:49.453Z,15.51
2023-03-16T13:25:27.681Z,15.49
2023-03-16T13:26:27.951Z,15.47
2023-03-16T13:27:27.693Z,15.43
2023-03-16T13:28:27.455Z,15.35
2023-03-16T13:29:27.714Z,15.38
2023-03-16T13:30:27.666Z,15.44